sensor_id;sensor_type;location;lat;lon;timestamp;temperature;humidity
1978;DHT22;989;53.016;8.346;2022-07-04T00:00:36;11.70;82.40
1978;DHT22;989;53.016;8.346;2022-07-04T00:03:01;11.70;82.60
1978;DHT22;989;53.016;8.346;2022-07-04T00:05:27;11.60;82.50
1978;DHT22;989;53.016;8.346;2022-07-04T00:07:53;11.70;82.80
1978;DHT22;989;53.016;8.346;2022-07-04T00:10:20;11.70;83.10
1978;DHT22;989;53.016;8.346;2022-07-04T00:12:48;11.50;82.50
1978;DHT22;989;53.016;8.346;2022-07-04T00:15:15;11.40;82.10
1978;DHT22;989;53.016;8.346;2022-07-04T00:17:41;11.30;82.30
1978;DHT22;989;53.016;8.346;2022-07-04T00:20:08;11.20;82.20
1978;DHT22;989;53.016;8.346;2022-07-04T00:22:35;11.10;82.10
1978;DHT22;989;53.016;8.346;2022-07-04T00:25:01;11.10;82.40
1978;DHT22;989;53.016;8.346;2022-07-04T00:27:27;11.00;82.10
1978;DHT22;989;53.016;8.346;2022-07-04T00:29:53;10.90;82.00
1978;DHT22;989;53.016;8.346;2022-07-04T00:32:19;10.80;82.30
1978;DHT22;989;53.016;8.346;2022-07-04T00:34:45;10.80;82.50
1978;DHT22;989;53.016;8.346;2022-07-04T00:37:11;10.80;83.60
1978;DHT22;989;53.016;8.346;2022-07-04T00:39:36;10.80;83.90
1978;DHT22;989;53.016;8.346;2022-07-04T00:42:03;10.80;84.50
1978;DHT22;989;53.016;8.346;2022-07-04T00:44:30;11.00;86.30
1978;DHT22;989;53.016;8.346;2022-07-04T00:46:57;11.10;86.90
1978;DHT22;989;53.016;8.346;2022-07-04T00:49:22;11.00;86.80
1978;DHT22;989;53.016;8.346;2022-07-04T00:51:48;11.10;87.30
1978;DHT22;989;53.016;8.346;2022-07-04T00:54:16;11.10;87.30
1978;DHT22;989;53.016;8.346;2022-07-04T00:56:46;11.00;87.50
1978;DHT22;989;53.016;8.346;2022-07-04T00:59:12;11.10;88.30
1978;DHT22;989;53.016;8.346;2022-07-04T01:01:39;11.10;87.90
1978;DHT22;989;53.016;8.346;2022-07-04T01:04:06;11.00;87.80
1978;DHT22;989;53.016;8.346;2022-07-04T01:06:32;10.90;87.60
1978;DHT22;989;53.016;8.346;2022-07-04T01:08:59;10.80;88.10
1978;DHT22;989;53.016;8.346;2022-07-04T01:11:25;10.90;89.20
1978;DHT22;989;53.016;8.346;2022-07-04T01:13:53;10.80;88.90
1978;DHT22;989;53.016;8.346;2022-07-04T01:16:20;10.90;89.60
1978;DHT22;989;53.016;8.346;2022-07-04T01:18:45;10.80;89.90
1978;DHT22;989;53.016;8.346;2022-07-04T01:21:11;10.80;89.70
1978;DHT22;989;53.016;8.346;2022-07-04T01:23:40;10.70;89.60
1978;DHT22;989;53.016;8.346;2022-07-04T01:26:07;10.60;90.00
1978;DHT22;989;53.016;8.346;2022-07-04T01:28:33;10.60;90.10
1978;DHT22;989;53.016;8.346;2022-07-04T01:30:59;10.50;89.70
1978;DHT22;989;53.016;8.346;2022-07-04T01:33:25;10.40;89.80
1978;DHT22;989;53.016;8.346;2022-07-04T01:35:51;10.40;90.10
1978;DHT22;989;53.016;8.346;2022-07-04T01:38:17;10.30;90.10
1978;DHT22;989;53.016;8.346;2022-07-04T01:40:43;10.20;89.80
1978;DHT22;989;53.016;8.346;2022-07-04T01:43:08;10.20;89.80
1978;DHT22;989;53.016;8.346;2022-07-04T01:45:34;10.20;90.30
1978;DHT22;989;53.016;8.346;2022-07-04T01:48:06;10.20;90.30
1978;DHT22;989;53.016;8.346;2022-07-04T01:50:33;10.10;90.40
1978;DHT22;989;53.016;8.346;2022-07-04T01:53:00;10.10;90.60
1978;DHT22;989;53.016;8.346;2022-07-04T01:55:26;10.10;90.80
1978;DHT22;989;53.016;8.346;2022-07-04T01:57:52;10.20;91.00
1978;DHT22;989;53.016;8.346;2022-07-04T02:00:18;10.20;91.00
1978;DHT22;989;53.016;8.346;2022-07-04T02:03:02;10.10;90.80
1978;DHT22;989;53.016;8.346;2022-07-04T02:05:28;10.00;90.80
1978;DHT22;989;53.016;8.346;2022-07-04T02:07:54;10.00;90.80
1978;DHT22;989;53.016;8.346;2022-07-04T02:10:20;9.90;91.20
1978;DHT22;989;53.016;8.346;2022-07-04T02:12:45;9.80;91.30
1978;DHT22;989;53.016;8.346;2022-07-04T02:15:35;9.80;91.30
1978;DHT22;989;53.016;8.346;2022-07-04T02:18:03;9.80;91.30
1978;DHT22;989;53.016;8.346;2022-07-04T02:20:30;9.70;91.30
1978;DHT22;989;53.016;8.346;2022-07-04T02:22:55;9.70;91.40
1978;DHT22;989;53.016;8.346;2022-07-04T02:25:21;9.60;91.40
1978;DHT22;989;53.016;8.346;2022-07-04T02:27:48;9.70;91.80
1978;DHT22;989;53.016;8.346;2022-07-04T02:30:14;9.60;91.80
1978;DHT22;989;53.016;8.346;2022-07-04T02:32:40;9.60;91.80
1978;DHT22;989;53.016;8.346;2022-07-04T02:35:06;9.60;92.10
1978;DHT22;989;53.016;8.346;2022-07-04T02:37:33;9.70;92.60
1978;DHT22;989;53.016;8.346;2022-07-04T02:39:58;9.90;93.00
1978;DHT22;989;53.016;8.346;2022-07-04T02:42:26;10.10;93.00
1978;DHT22;989;53.016;8.346;2022-07-04T02:44:54;10.60;93.40
1978;DHT22;989;53.016;8.346;2022-07-04T02:47:19;10.80;93.90
1978;DHT22;989;53.016;8.346;2022-07-04T02:49:45;11.10;94.30
1978;DHT22;989;53.016;8.346;2022-07-04T02:52:11;11.10;94.30
1978;DHT22;989;53.016;8.346;2022-07-04T02:54:36;11.20;94.50
1978;DHT22;989;53.016;8.346;2022-07-04T02:57:02;11.10;94.60
1978;DHT22;989;53.016;8.346;2022-07-04T02:59:28;11.10;94.50
1978;DHT22;989;53.016;8.346;2022-07-04T03:01:54;11.10;94.60
1978;DHT22;989;53.016;8.346;2022-07-04T03:04:19;11.10;94.60
1978;DHT22;989;53.016;8.346;2022-07-04T03:06:45;11.10;94.70
1978;DHT22;989;53.016;8.346;2022-07-04T03:09:11;11.10;94.70
1978;DHT22;989;53.016;8.346;2022-07-04T03:11:37;11.00;94.50
1978;DHT22;989;53.016;8.346;2022-07-04T03:14:02;10.80;94.50
1978;DHT22;989;53.016;8.346;2022-07-04T03:16:28;10.70;94.50
1978;DHT22;989;53.016;8.346;2022-07-04T03:18:54;10.60;94.30
1978;DHT22;989;53.016;8.346;2022-07-04T03:21:19;10.50;94.30
1978;DHT22;989;53.016;8.346;2022-07-04T03:23:45;10.30;94.00
1978;DHT22;989;53.016;8.346;2022-07-04T03:26:26;10.20;93.90
1978;DHT22;989;53.016;8.346;2022-07-04T03:28:53;10.00;93.70
1978;DHT22;989;53.016;8.346;2022-07-04T03:31:18;10.00;93.80
1978;DHT22;989;53.016;8.346;2022-07-04T03:33:44;9.90;94.30
1978;DHT22;989;53.016;8.346;2022-07-04T03:36:10;9.90;94.10
1978;DHT22;989;53.016;8.346;2022-07-04T03:38:36;9.80;94.10
1978;DHT22;989;53.016;8.346;2022-07-04T03:41:02;9.90;94.30
1978;DHT22;989;53.016;8.346;2022-07-04T03:43:28;10.00;94.00
1978;DHT22;989;53.016;8.346;2022-07-04T03:45:53;10.20;94.40
1978;DHT22;989;53.016;8.346;2022-07-04T03:48:19;10.60;95.20
1978;DHT22;989;53.016;8.346;2022-07-04T03:50:46;11.00;95.60
1978;DHT22;989;53.016;8.346;2022-07-04T03:53:11;11.10;95.60
1978;DHT22;989;53.016;8.346;2022-07-04T03:55:38;11.00;95.10
1978;DHT22;989;53.016;8.346;2022-07-04T03:58:05;11.00;95.20
1978;DHT22;989;53.016;8.346;2022-07-04T04:00:31;11.30;95.80
1978;DHT22;989;53.016;8.346;2022-07-04T04:02:58;11.90;96.30
1978;DHT22;989;53.016;8.346;2022-07-04T04:05:24;12.40;96.70
1978;DHT22;989;53.016;8.346;2022-07-04T04:07:57;12.80;96.90
1978;DHT22;989;53.016;8.346;2022-07-04T04:10:25;13.20;96.70
1978;DHT22;989;53.016;8.346;2022-07-04T04:12:52;13.50;95.60
1978;DHT22;989;53.016;8.346;2022-07-04T04:15:18;13.90;94.20
1978;DHT22;989;53.016;8.346;2022-07-04T04:17:44;14.20;90.40
1978;DHT22;989;53.016;8.346;2022-07-04T04:20:10;14.40;79.90
1978;DHT22;989;53.016;8.346;2022-07-04T04:22:36;14.50;65.30
1978;DHT22;989;53.016;8.346;2022-07-04T04:25:02;14.90;60.20
1978;DHT22;989;53.016;8.346;2022-07-04T04:27:28;15.40;45.40
1978;DHT22;989;53.016;8.346;2022-07-04T04:29:54;15.80;30.50
1978;DHT22;989;53.016;8.346;2022-07-04T04:32:20;16.00;24.30
1978;DHT22;989;53.016;8.346;2022-07-04T04:34:47;16.20;24.40
1978;DHT22;989;53.016;8.346;2022-07-04T04:37:12;16.50;14.50
1978;DHT22;989;53.016;8.346;2022-07-04T04:39:38;16.50;12.40
1978;DHT22;989;53.016;8.346;2022-07-04T04:42:05;16.60;6.20
1978;DHT22;989;53.016;8.346;2022-07-04T04:44:30;16.80;7.50
1978;DHT22;989;53.016;8.346;2022-07-04T04:46:56;16.70;3.70
1978;DHT22;989;53.016;8.346;2022-07-04T04:49:22;17.10;2.60
1978;DHT22;989;53.016;8.346;2022-07-04T04:51:47;17.40;1.00
1978;DHT22;989;53.016;8.346;2022-07-04T04:54:13;17.40;1.00
1978;DHT22;989;53.016;8.346;2022-07-04T04:56:39;17.70;1.00
1978;DHT22;989;53.016;8.346;2022-07-04T04:59:04;18.10;1.00
1978;DHT22;989;53.016;8.346;2022-07-04T05:01:30;18.30;1.00
1978;DHT22;989;53.016;8.346;2022-07-04T05:03:56;18.50;1.00
1978;DHT22;989;53.016;8.346;2022-07-04T05:06:22;18.70;1.00
1978;DHT22;989;53.016;8.346;2022-07-04T05:08:48;19.00;1.00
1978;DHT22;989;53.016;8.346;2022-07-04T05:11:14;18.90;1.00
1978;DHT22;989;53.016;8.346;2022-07-04T05:13:40;18.80;1.00
1978;DHT22;989;53.016;8.346;2022-07-04T05:16:05;19.20;1.00
1978;DHT22;989;53.016;8.346;2022-07-04T05:18:31;19.40;1.00
1978;DHT22;989;53.016;8.346;2022-07-04T05:20:58;19.70;1.00
1978;DHT22;989;53.016;8.346;2022-07-04T05:23:24;20.00;1.00
1978;DHT22;989;53.016;8.346;2022-07-04T05:25:50;20.00;1.00
1978;DHT22;989;53.016;8.346;2022-07-04T05:28:15;19.80;1.00
1978;DHT22;989;53.016;8.346;2022-07-04T05:30:41;19.30;1.00
1978;DHT22;989;53.016;8.346;2022-07-04T05:33:08;19.10;1.00
1978;DHT22;989;53.016;8.346;2022-07-04T05:35:34;19.50;1.00
1978;DHT22;989;53.016;8.346;2022-07-04T05:38:00;19.50;1.00
1978;DHT22;989;53.016;8.346;2022-07-04T05:40:26;19.80;1.00
1978;DHT22;989;53.016;8.346;2022-07-04T05:42:51;19.60;1.00
1978;DHT22;989;53.016;8.346;2022-07-04T05:45:17;19.50;1.00
1978;DHT22;989;53.016;8.346;2022-07-04T05:47:43;19.40;1.00
1978;DHT22;989;53.016;8.346;2022-07-04T05:50:09;19.80;1.00
1978;DHT22;989;53.016;8.346;2022-07-04T05:52:35;19.90;1.00
1978;DHT22;989;53.016;8.346;2022-07-04T05:55:01;19.60;1.00
1978;DHT22;989;53.016;8.346;2022-07-04T05:57:27;18.80;1.00
1978;DHT22;989;53.016;8.346;2022-07-04T05:59:53;17.80;1.00
1978;DHT22;989;53.016;8.346;2022-07-04T06:02:19;17.40;1.00
1978;DHT22;989;53.016;8.346;2022-07-04T06:04:44;17.10;1.00
1978;DHT22;989;53.016;8.346;2022-07-04T06:07:10;17.20;1.00
1978;DHT22;989;53.016;8.346;2022-07-04T06:09:36;17.50;1.00
1978;DHT22;989;53.016;8.346;2022-07-04T06:12:04;18.30;1.00
1978;DHT22;989;53.016;8.346;2022-07-04T06:14:30;18.50;1.00
1978;DHT22;989;53.016;8.346;2022-07-04T06:16:56;18.60;1.00
1978;DHT22;989;53.016;8.346;2022-07-04T06:19:22;18.90;1.00
1978;DHT22;989;53.016;8.346;2022-07-04T06:21:48;19.00;1.00
1978;DHT22;989;53.016;8.346;2022-07-04T06:24:13;19.10;1.00
1978;DHT22;989;53.016;8.346;2022-07-04T06:26:39;19.50;1.00
1978;DHT22;989;53.016;8.346;2022-07-04T06:29:05;19.80;1.00
1978;DHT22;989;53.016;8.346;2022-07-04T06:31:31;19.60;1.00
1978;DHT22;989;53.016;8.346;2022-07-04T06:33:57;19.80;1.00
1978;DHT22;989;53.016;8.346;2022-07-04T06:36:41;20.50;1.00
1978;DHT22;989;53.016;8.346;2022-07-04T06:39:07;20.10;1.00
1978;DHT22;989;53.016;8.346;2022-07-04T06:41:32;19.40;1.00
1978;DHT22;989;53.016;8.346;2022-07-04T06:43:58;19.10;1.00
1978;DHT22;989;53.016;8.346;2022-07-04T06:46:24;19.40;1.00
1978;DHT22;989;53.016;8.346;2022-07-04T06:48:49;19.80;1.00
1978;DHT22;989;53.016;8.346;2022-07-04T06:51:15;20.10;1.00
1978;DHT22;989;53.016;8.346;2022-07-04T06:53:42;19.90;1.00
1978;DHT22;989;53.016;8.346;2022-07-04T06:56:08;19.60;1.00
1978;DHT22;989;53.016;8.346;2022-07-04T06:58:34;19.50;1.00
1978;DHT22;989;53.016;8.346;2022-07-04T07:00:59;19.80;1.00
1978;DHT22;989;53.016;8.346;2022-07-04T07:03:25;20.10;1.00
1978;DHT22;989;53.016;8.346;2022-07-04T07:05:52;19.80;1.00
1978;DHT22;989;53.016;8.346;2022-07-04T07:08:18;19.80;1.00
1978;DHT22;989;53.016;8.346;2022-07-04T07:10:44;19.50;1.00
1978;DHT22;989;53.016;8.346;2022-07-04T07:13:10;19.50;1.00
1978;DHT22;989;53.016;8.346;2022-07-04T07:15:36;20.00;1.00
1978;DHT22;989;53.016;8.346;2022-07-04T07:18:03;20.50;1.00
1978;DHT22;989;53.016;8.346;2022-07-04T07:20:29;20.10;1.00
1978;DHT22;989;53.016;8.346;2022-07-04T07:22:55;19.90;1.00
1978;DHT22;989;53.016;8.346;2022-07-04T07:25:21;20.00;1.00
1978;DHT22;989;53.016;8.346;2022-07-04T07:27:47;20.00;1.00
1978;DHT22;989;53.016;8.346;2022-07-04T07:30:12;20.10;1.00
1978;DHT22;989;53.016;8.346;2022-07-04T07:32:38;20.20;1.00
1978;DHT22;989;53.016;8.346;2022-07-04T07:35:04;20.50;1.00
1978;DHT22;989;53.016;8.346;2022-07-04T07:37:31;20.80;1.00
1978;DHT22;989;53.016;8.346;2022-07-04T07:39:56;20.90;1.00
1978;DHT22;989;53.016;8.346;2022-07-04T07:42:26;20.80;1.00
1978;DHT22;989;53.016;8.346;2022-07-04T07:44:52;20.70;1.00
1978;DHT22;989;53.016;8.346;2022-07-04T07:47:17;20.70;1.00
1978;DHT22;989;53.016;8.346;2022-07-04T07:49:43;20.60;1.00
1978;DHT22;989;53.016;8.346;2022-07-04T07:52:10;21.20;1.00
1978;DHT22;989;53.016;8.346;2022-07-04T07:54:36;21.70;1.00
1978;DHT22;989;53.016;8.346;2022-07-04T07:57:02;21.20;1.00
1978;DHT22;989;53.016;8.346;2022-07-04T07:59:28;21.30;1.00
1978;DHT22;989;53.016;8.346;2022-07-04T08:01:54;21.90;1.00
1978;DHT22;989;53.016;8.346;2022-07-04T08:04:19;21.50;1.00
1978;DHT22;989;53.016;8.346;2022-07-04T08:07:05;21.60;1.00
1978;DHT22;989;53.016;8.346;2022-07-04T08:09:33;21.50;1.00
1978;DHT22;989;53.016;8.346;2022-07-04T08:12:00;21.10;1.00
1978;DHT22;989;53.016;8.346;2022-07-04T08:14:27;20.80;1.00
1978;DHT22;989;53.016;8.346;2022-07-04T08:16:54;21.10;1.00
1978;DHT22;989;53.016;8.346;2022-07-04T08:19:22;20.70;1.00
1978;DHT22;989;53.016;8.346;2022-07-04T08:21:50;21.30;1.00
1978;DHT22;989;53.016;8.346;2022-07-04T08:24:17;21.50;1.00
1978;DHT22;989;53.016;8.346;2022-07-04T08:26:43;22.00;1.00
1978;DHT22;989;53.016;8.346;2022-07-04T08:29:09;22.80;1.00
1978;DHT22;989;53.016;8.346;2022-07-04T08:31:36;22.50;1.00
1978;DHT22;989;53.016;8.346;2022-07-04T08:34:02;21.90;1.00
1978;DHT22;989;53.016;8.346;2022-07-04T08:36:27;21.10;1.00
1978;DHT22;989;53.016;8.346;2022-07-04T08:38:53;21.10;1.00
1978;DHT22;989;53.016;8.346;2022-07-04T08:41:19;22.20;1.00
1978;DHT22;989;53.016;8.346;2022-07-04T08:43:47;22.60;1.00
1978;DHT22;989;53.016;8.346;2022-07-04T08:46:15;21.70;1.00
1978;DHT22;989;53.016;8.346;2022-07-04T08:48:51;21.40;1.00
1978;DHT22;989;53.016;8.346;2022-07-04T08:51:47;21.70;1.00
1978;DHT22;989;53.016;8.346;2022-07-04T08:54:19;22.10;1.00
1978;DHT22;989;53.016;8.346;2022-07-04T08:57:06;22.10;1.00
1978;DHT22;989;53.016;8.346;2022-07-04T08:59:51;22.00;1.00
1978;DHT22;989;53.016;8.346;2022-07-04T09:02:20;21.80;1.00
1978;DHT22;989;53.016;8.346;2022-07-04T09:04:46;21.90;1.00
1978;DHT22;989;53.016;8.346;2022-07-04T09:07:13;22.70;1.00
1978;DHT22;989;53.016;8.346;2022-07-04T09:09:40;23.10;1.00
1978;DHT22;989;53.016;8.346;2022-07-04T09:12:07;23.10;1.00
1978;DHT22;989;53.016;8.346;2022-07-04T09:14:34;22.30;1.00
1978;DHT22;989;53.016;8.346;2022-07-04T09:17:00;23.10;1.00
1978;DHT22;989;53.016;8.346;2022-07-04T09:19:25;23.20;1.00
1978;DHT22;989;53.016;8.346;2022-07-04T09:21:51;22.60;1.00
1978;DHT22;989;53.016;8.346;2022-07-04T09:24:44;22.30;1.00
1978;DHT22;989;53.016;8.346;2022-07-04T09:27:10;22.30;1.00
1978;DHT22;989;53.016;8.346;2022-07-04T09:29:51;22.50;1.00
1978;DHT22;989;53.016;8.346;2022-07-04T09:32:40;22.00;1.00
1978;DHT22;989;53.016;8.346;2022-07-04T09:35:09;21.20;1.00
1978;DHT22;989;53.016;8.346;2022-07-04T09:37:42;21.50;1.00
1978;DHT22;989;53.016;8.346;2022-07-04T09:40:31;21.40;1.00
1978;DHT22;989;53.016;8.346;2022-07-04T09:43:01;22.10;1.00
1978;DHT22;989;53.016;8.346;2022-07-04T09:45:55;23.10;1.00
1978;DHT22;989;53.016;8.346;2022-07-04T09:48:24;23.20;1.00
1978;DHT22;989;53.016;8.346;2022-07-04T09:50:50;22.50;1.00
1978;DHT22;989;53.016;8.346;2022-07-04T09:53:16;22.20;1.00
1978;DHT22;989;53.016;8.346;2022-07-04T09:55:42;21.70;1.00
1978;DHT22;989;53.016;8.346;2022-07-04T09:58:15;21.40;1.00
1978;DHT22;989;53.016;8.346;2022-07-04T10:00:46;21.00;1.00
1978;DHT22;989;53.016;8.346;2022-07-04T10:05:48;21.20;1.00
1978;DHT22;989;53.016;8.346;2022-07-04T10:08:42;21.40;1.00
1978;DHT22;989;53.016;8.346;2022-07-04T10:11:09;21.80;1.00
1978;DHT22;989;53.016;8.346;2022-07-04T10:13:36;21.60;1.00
1978;DHT22;989;53.016;8.346;2022-07-04T10:16:03;21.60;1.00
1978;DHT22;989;53.016;8.346;2022-07-04T10:18:29;21.70;1.00
1978;DHT22;989;53.016;8.346;2022-07-04T10:20:56;22.20;1.00
1978;DHT22;989;53.016;8.346;2022-07-04T10:23:23;22.40;1.00
1978;DHT22;989;53.016;8.346;2022-07-04T10:25:52;23.20;1.00
1978;DHT22;989;53.016;8.346;2022-07-04T10:28:19;22.80;1.00
1978;DHT22;989;53.016;8.346;2022-07-04T10:30:48;22.10;1.00
1978;DHT22;989;53.016;8.346;2022-07-04T10:33:20;22.00;1.00
1978;DHT22;989;53.016;8.346;2022-07-04T10:36:15;21.70;1.00
1978;DHT22;989;53.016;8.346;2022-07-04T10:39:02;22.90;1.00
1978;DHT22;989;53.016;8.346;2022-07-04T10:41:30;22.80;1.00
1978;DHT22;989;53.016;8.346;2022-07-04T10:46:47;22.40;1.00
1978;DHT22;989;53.016;8.346;2022-07-04T10:49:21;22.60;1.00
1978;DHT22;989;53.016;8.346;2022-07-04T10:51:49;22.10;1.00
1978;DHT22;989;53.016;8.346;2022-07-04T10:54:30;21.90;1.00
1978;DHT22;989;53.016;8.346;2022-07-04T10:57:16;21.80;1.00
1978;DHT22;989;53.016;8.346;2022-07-04T11:02:26;21.40;1.00
1978;DHT22;989;53.016;8.346;2022-07-04T11:18:10;21.70;1.00
1978;DHT22;989;53.016;8.346;2022-07-04T11:20:42;21.70;1.00
1978;DHT22;989;53.016;8.346;2022-07-04T11:23:14;22.20;1.00
1978;DHT22;989;53.016;8.346;2022-07-04T11:25:43;22.70;1.00
1978;DHT22;989;53.016;8.346;2022-07-04T11:28:30;22.80;1.00
1978;DHT22;989;53.016;8.346;2022-07-04T11:31:00;23.60;1.00
1978;DHT22;989;53.016;8.346;2022-07-04T11:33:32;24.00;1.00
1978;DHT22;989;53.016;8.346;2022-07-04T11:36:09;24.60;1.00
1978;DHT22;989;53.016;8.346;2022-07-04T11:38:54;24.20;1.00
1978;DHT22;989;53.016;8.346;2022-07-04T11:44:28;23.50;1.00
1978;DHT22;989;53.016;8.346;2022-07-04T11:52:17;24.30;1.00
1978;DHT22;989;53.016;8.346;2022-07-04T11:54:46;24.90;1.00
1978;DHT22;989;53.016;8.346;2022-07-04T11:59:56;24.70;1.00
1978;DHT22;989;53.016;8.346;2022-07-04T12:02:28;23.80;1.00
1978;DHT22;989;53.016;8.346;2022-07-04T12:04:54;24.20;1.00
1978;DHT22;989;53.016;8.346;2022-07-04T12:07:24;24.50;1.00
1978;DHT22;989;53.016;8.346;2022-07-04T12:09:52;24.50;1.00
1978;DHT22;989;53.016;8.346;2022-07-04T12:12:19;24.00;1.00
1978;DHT22;989;53.016;8.346;2022-07-04T12:15:03;24.70;1.00
1978;DHT22;989;53.016;8.346;2022-07-04T12:17:37;26.00;1.00
1978;DHT22;989;53.016;8.346;2022-07-04T12:20:14;24.90;1.00
1978;DHT22;989;53.016;8.346;2022-07-04T12:22:54;23.90;1.00
1978;DHT22;989;53.016;8.346;2022-07-04T12:25:32;22.70;1.00
1978;DHT22;989;53.016;8.346;2022-07-04T12:28:13;22.20;1.00
1978;DHT22;989;53.016;8.346;2022-07-04T12:33:23;22.20;1.00
1978;DHT22;989;53.016;8.346;2022-07-04T12:36:00;22.40;1.00
1978;DHT22;989;53.016;8.346;2022-07-04T12:43:21;22.50;1.00
1978;DHT22;989;53.016;8.346;2022-07-04T12:45:53;22.70;1.00
1978;DHT22;989;53.016;8.346;2022-07-04T12:50:53;24.40;1.00
1978;DHT22;989;53.016;8.346;2022-07-04T12:53:20;23.80;1.00
1978;DHT22;989;53.016;8.346;2022-07-04T12:55:48;23.30;1.00
1978;DHT22;989;53.016;8.346;2022-07-04T12:58:14;24.20;1.00
1978;DHT22;989;53.016;8.346;2022-07-04T13:00:41;24.20;1.00
1978;DHT22;989;53.016;8.346;2022-07-04T13:03:07;25.20;1.00
1978;DHT22;989;53.016;8.346;2022-07-04T13:05:34;25.20;1.00
1978;DHT22;989;53.016;8.346;2022-07-04T13:08:02;25.30;1.00
1978;DHT22;989;53.016;8.346;2022-07-04T13:10:29;26.30;1.00
1978;DHT22;989;53.016;8.346;2022-07-04T13:12:55;26.50;1.00
1978;DHT22;989;53.016;8.346;2022-07-04T13:15:21;25.10;1.00
1978;DHT22;989;53.016;8.346;2022-07-04T13:17:48;24.10;1.00
1978;DHT22;989;53.016;8.346;2022-07-04T13:20:14;23.40;1.00
1978;DHT22;989;53.016;8.346;2022-07-04T13:22:39;23.60;1.00
1978;DHT22;989;53.016;8.346;2022-07-04T13:25:05;23.30;1.00
1978;DHT22;989;53.016;8.346;2022-07-04T13:27:32;23.10;1.00
1978;DHT22;989;53.016;8.346;2022-07-04T13:29:58;22.40;1.00
1978;DHT22;989;53.016;8.346;2022-07-04T13:32:24;22.30;1.00
1978;DHT22;989;53.016;8.346;2022-07-04T13:34:49;22.20;1.00
1978;DHT22;989;53.016;8.346;2022-07-04T13:37:16;22.40;1.00
1978;DHT22;989;53.016;8.346;2022-07-04T13:39:43;22.70;1.00
1978;DHT22;989;53.016;8.346;2022-07-04T13:42:09;22.30;1.00
1978;DHT22;989;53.016;8.346;2022-07-04T13:44:34;22.20;1.00
1978;DHT22;989;53.016;8.346;2022-07-04T13:47:00;21.90;1.00
1978;DHT22;989;53.016;8.346;2022-07-04T13:49:26;21.80;1.00
1978;DHT22;989;53.016;8.346;2022-07-04T13:51:53;22.90;1.00
1978;DHT22;989;53.016;8.346;2022-07-04T13:54:19;24.60;1.00
1978;DHT22;989;53.016;8.346;2022-07-04T13:56:45;23.40;1.00
1978;DHT22;989;53.016;8.346;2022-07-04T13:59:14;24.40;1.00
1978;DHT22;989;53.016;8.346;2022-07-04T14:01:40;26.30;1.00
1978;DHT22;989;53.016;8.346;2022-07-04T14:04:06;27.60;1.00
1978;DHT22;989;53.016;8.346;2022-07-04T14:06:32;27.90;1.00
1978;DHT22;989;53.016;8.346;2022-07-04T14:08:58;27.60;1.00
1978;DHT22;989;53.016;8.346;2022-07-04T14:11:24;26.50;1.00
1978;DHT22;989;53.016;8.346;2022-07-04T14:13:50;25.90;1.00
1978;DHT22;989;53.016;8.346;2022-07-04T14:16:16;26.00;1.00
1978;DHT22;989;53.016;8.346;2022-07-04T14:18:41;25.20;1.00
1978;DHT22;989;53.016;8.346;2022-07-04T14:21:07;24.30;1.00
1978;DHT22;989;53.016;8.346;2022-07-04T14:23:35;24.60;1.00
1978;DHT22;989;53.016;8.346;2022-07-04T14:26:16;25.80;1.00
1978;DHT22;989;53.016;8.346;2022-07-04T14:28:43;26.00;1.00
1978;DHT22;989;53.016;8.346;2022-07-04T14:31:12;25.60;1.00
1978;DHT22;989;53.016;8.346;2022-07-04T14:33:38;24.60;1.00
1978;DHT22;989;53.016;8.346;2022-07-04T14:36:04;23.60;1.00
1978;DHT22;989;53.016;8.346;2022-07-04T14:38:34;24.20;1.00
1978;DHT22;989;53.016;8.346;2022-07-04T14:41:00;25.60;1.00
1978;DHT22;989;53.016;8.346;2022-07-04T14:43:42;25.70;1.00
1978;DHT22;989;53.016;8.346;2022-07-04T14:46:09;26.50;1.00
1978;DHT22;989;53.016;8.346;2022-07-04T14:48:36;27.10;1.00
1978;DHT22;989;53.016;8.346;2022-07-04T14:51:03;26.90;1.00
1978;DHT22;989;53.016;8.346;2022-07-04T14:53:29;26.20;1.00
1978;DHT22;989;53.016;8.346;2022-07-04T14:55:55;25.30;1.00
1978;DHT22;989;53.016;8.346;2022-07-04T14:58:21;26.10;1.00
1978;DHT22;989;53.016;8.346;2022-07-04T15:00:47;27.00;1.00
1978;DHT22;989;53.016;8.346;2022-07-04T15:03:13;26.60;1.00
1978;DHT22;989;53.016;8.346;2022-07-04T15:05:38;26.80;1.00
1978;DHT22;989;53.016;8.346;2022-07-04T15:08:04;26.90;1.00
1978;DHT22;989;53.016;8.346;2022-07-04T15:10:30;27.10;1.00
1978;DHT22;989;53.016;8.346;2022-07-04T15:12:55;27.00;1.00
1978;DHT22;989;53.016;8.346;2022-07-04T15:15:21;26.40;1.00
1978;DHT22;989;53.016;8.346;2022-07-04T15:17:47;25.90;1.00
1978;DHT22;989;53.016;8.346;2022-07-04T15:20:13;26.70;1.00
1978;DHT22;989;53.016;8.346;2022-07-04T15:23:04;27.20;1.00
1978;DHT22;989;53.016;8.346;2022-07-04T15:25:48;26.20;1.00
1978;DHT22;989;53.016;8.346;2022-07-04T15:28:14;24.20;1.00
1978;DHT22;989;53.016;8.346;2022-07-04T15:30:40;24.80;1.00
1978;DHT22;989;53.016;8.346;2022-07-04T15:33:05;25.60;1.00
1978;DHT22;989;53.016;8.346;2022-07-04T15:35:31;24.20;1.00
1978;DHT22;989;53.016;8.346;2022-07-04T15:37:57;24.00;1.00
1978;DHT22;989;53.016;8.346;2022-07-04T15:40:22;24.80;1.00
1978;DHT22;989;53.016;8.346;2022-07-04T15:42:48;25.50;1.00
1978;DHT22;989;53.016;8.346;2022-07-04T15:45:13;26.20;1.00
1978;DHT22;989;53.016;8.346;2022-07-04T15:47:39;26.50;1.00
1978;DHT22;989;53.016;8.346;2022-07-04T15:50:08;26.80;1.00
1978;DHT22;989;53.016;8.346;2022-07-04T15:52:33;26.40;1.00
1978;DHT22;989;53.016;8.346;2022-07-04T15:54:59;26.20;1.00
1978;DHT22;989;53.016;8.346;2022-07-04T15:57:24;26.90;1.00
1978;DHT22;989;53.016;8.346;2022-07-04T15:59:50;26.70;1.00
1978;DHT22;989;53.016;8.346;2022-07-04T16:02:16;26.40;1.00
1978;DHT22;989;53.016;8.346;2022-07-04T16:04:41;26.70;1.00
1978;DHT22;989;53.016;8.346;2022-07-04T16:07:07;26.90;1.00
1978;DHT22;989;53.016;8.346;2022-07-04T16:09:32;26.50;1.00
1978;DHT22;989;53.016;8.346;2022-07-04T16:11:58;26.10;1.00
1978;DHT22;989;53.016;8.346;2022-07-04T16:14:24;25.50;1.00
1978;DHT22;989;53.016;8.346;2022-07-04T16:16:49;25.30;1.00
1978;DHT22;989;53.016;8.346;2022-07-04T16:19:15;25.50;1.00
1978;DHT22;989;53.016;8.346;2022-07-04T16:21:41;25.60;1.00
1978;DHT22;989;53.016;8.346;2022-07-04T16:24:07;25.60;1.00
1978;DHT22;989;53.016;8.346;2022-07-04T16:26:33;25.90;1.00
1978;DHT22;989;53.016;8.346;2022-07-04T16:29:00;25.70;1.00
1978;DHT22;989;53.016;8.346;2022-07-04T16:31:25;25.30;1.00
1978;DHT22;989;53.016;8.346;2022-07-04T16:33:51;25.20;1.00
1978;DHT22;989;53.016;8.346;2022-07-04T16:36:17;25.30;1.00
1978;DHT22;989;53.016;8.346;2022-07-04T16:38:42;25.00;1.00
1978;DHT22;989;53.016;8.346;2022-07-04T16:41:08;25.10;1.00
1978;DHT22;989;53.016;8.346;2022-07-04T16:43:34;24.20;1.00
1978;DHT22;989;53.016;8.346;2022-07-04T16:46:00;24.60;1.00
1978;DHT22;989;53.016;8.346;2022-07-04T16:48:26;24.80;1.00
1978;DHT22;989;53.016;8.346;2022-07-04T16:50:51;24.50;1.00
1978;DHT22;989;53.016;8.346;2022-07-04T16:53:17;24.90;1.00
1978;DHT22;989;53.016;8.346;2022-07-04T16:55:43;25.10;1.00
1978;DHT22;989;53.016;8.346;2022-07-04T16:58:09;24.60;1.00
1978;DHT22;989;53.016;8.346;2022-07-04T17:00:35;25.10;1.00
1978;DHT22;989;53.016;8.346;2022-07-04T17:03:00;24.70;1.00
1978;DHT22;989;53.016;8.346;2022-07-04T17:05:28;25.20;1.00
1978;DHT22;989;53.016;8.346;2022-07-04T17:07:54;25.50;1.00
1978;DHT22;989;53.016;8.346;2022-07-04T17:10:20;25.30;1.00
1978;DHT22;989;53.016;8.346;2022-07-04T17:12:45;25.40;1.00
1978;DHT22;989;53.016;8.346;2022-07-04T17:15:11;25.50;1.00